Time;durP1;ratioP1;P1;durP2;ratioP2;P2;SDS_P1;SDS_P2;PMS_P1;PMS_P2;Temp;Humidity;BMP_temperature;BMP_pressure;BME280_temperature;BME280_humidity;BME280_pressure;Samples;Min_cycle;Max_cycle;Signal;HPM_P1;HPM_P2
2023/10/18 07:23:57;;;;;;;8.07;7.28;;;;;;;-145.79;73.77;77758.81;5338808;27;20345;-76
2023/10/18 07:26:31;;;;;;;8.93;6.88;;;;;;;-145.79;73.41;77746.09;5321731;28;20043;-74
2023/10/18 07:29:08;;;;;;;7.55;6.80;;;;;;;-145.79;79.98;77686.75;5311834;28;20515;-73
2023/10/18 07:31:42;;;;;;;8.50;6.90;;;;;;;-145.79;73.05;77729.16;5320963;28;20062;-73
2023/10/18 07:34:28;;;;;;;7.25;6.55;;;;;;;-145.79;72.49;77720.66;5322252;28;20056;-73
2023/10/18 07:37:16;;;;;;;10.95;6.45;;;;;;;-145.79;71.54;77716.44;5306135;28;20035;-72
2023/10/18 07:40:07;;;;;;;10.63;6.95;;;;;;;-145.79;71.92;77707.94;5317816;28;20042;-72
2023/10/18 07:42:43;;;;;;;9.23;6.60;;;;;;;-145.79;71.18;77712.19;5319576;28;20466;-74
2023/10/18 07:45:15;;;;;;;8.30;7.10;;;;;;;-145.79;71.23;77699.47;5313196;28;20027;-73
2023/10/18 07:47:53;;;;;;;9.40;6.63;;;;;;;-145.79;71.43;77707.94;5315189;28;20024;-72
2023/10/18 07:53:11;;;;;;;;;;;;;;;-145.79;71.25;77676.16;5310343;28;20432;-73
2023/10/18 07:55:42;;;;;;;8.73;6.90;;;;;;;-145.79;71.51;77701.59;5312400;28;20358;-73
2023/10/18 07:58:48;;;;;;;9.32;6.90;;;;;;;-145.79;71.41;77695.22;5320443;28;20016;-73
2023/10/18 08:01:12;;;;;;;9.55;6.55;;;;;;;-145.79;70.91;77686.75;5306427;28;20036;-73
2023/10/18 08:03:44;;;;;;;8.10;7.03;;;;;;;-145.79;71.12;77682.50;5315575;28;20031;-74
2023/10/18 08:06:26;;;;;;;7.05;6.25;;;;;;;-145.79;71.12;77663.44;5308957;28;20368;-74
2023/10/18 08:08:57;;;;;;;7.82;7.03;;;;;;;-145.79;70.50;77659.19;5311092;28;20106;-74
2023/10/18 08:11:33;;;;;;;9.07;7.57;;;;;;;-145.79;71.43;77644.34;5319532;28;20123;-75
2023/10/18 08:14:16;;;;;;;11.27;7.75;;;;;;;-145.79;70.36;77644.34;5320107;28;20032;-75
2023/10/18 08:16:55;;;;;;;7.70;6.20;;;;;;;-145.79;70.19;77621.03;5316823;28;20355;-73
2023/10/18 08:19:30;;;;;;;8.30;6.55;;;;;;;-145.79;69.81;77621.03;5317076;28;20109;-74
2023/10/18 08:24:36;;;;;;;8.77;7.63;;;;;;;-145.79;70.16;77601.97;5308601;28;20037;-73
2023/10/18 08:27:10;;;;;;;9.63;7.13;;;;;;;-145.79;69.20;77595.59;5315042;28;20493;-73
2023/10/18 08:29:41;;;;;;;9.77;6.30;;;;;;;-145.79;71.70;77568.03;5315750;28;20055;-72
2023/10/18 08:32:16;;;;;;;7.85;6.90;;;;;;;-145.79;69.75;77565.94;5312335;28;20036;-72
2023/10/18 08:34:48;;;;;;;8.43;6.57;;;;;;;-145.79;69.79;77559.56;5305018;28;20051;-72
2023/10/18 08:37:19;;;;;;;8.75;6.50;;;;;;;-145.79;69.34;77555.31;5306197;28;20282;-73
2023/10/18 08:39:55;;;;;;;8.52;6.10;;;;;;;-145.79;68.93;77565.94;5305747;28;20024;-72
2023/10/18 08:42:32;;;;;;;12.77;7.22;;;;;;;-145.79;68.96;77559.56;5298274;28;20099;-71
2023/10/18 08:45:04;;;;;;;7.55;6.55;;;;;;;-145.79;69.20;77561.69;5297275;28;20425;-73
2023/10/18 08:47:46;;;;;;;7.03;6.35;;;;;;;-145.79;69.64;77538.38;5304975;28;20021;-73
2023/10/18 08:50:18;;;;;;;9.35;6.65;;;;;;;-145.79;68.82;77551.09;5303863;28;20033;-75
2023/10/18 08:52:50;;;;;;;9.45;7.13;;;;;;;-145.79;69.04;77551.09;5297488;28;20032;-73
2023/10/18 08:58:17;;;;;;;9.05;6.97;;;;;;;-145.79;69.07;77527.78;5293761;28;20041;-72
2023/10/18 09:03:27;;;;;;;7.35;6.40;;;;;;;-145.79;69.28;77498.09;5297537;28;20063;-72
2023/10/18 09:06:05;;;;;;;7.22;6.28;;;;;;;-145.79;69.20;77474.78;5298871;28;20028;-73
2023/10/18 09:08:42;;;;;;;7.30;5.88;;;;;;;-145.79;68.74;77462.06;5302818;28;20028;-73
2023/10/18 09:11:22;;;;;;;7.88;7.03;;;;;;;-145.79;68.37;77447.22;5305462;28;20024;-74
2023/10/18 09:16:47;;;;;;;6.90;6.20;;;;;;;-145.79;66.98;77434.50;5306825;28;20071;-77
2023/10/18 09:19:27;;;;;;;6.10;5.50;;;;;;;-145.79;66.96;77428.16;5303112;28;20455;-76
2023/10/18 09:22:01;;;;;;;6.95;6.05;;;;;;;-145.79;67.41;77409.06;5297720;28;20597;-73
2023/10/18 09:24:34;;;;;;;7.70;6.35;;;;;;;-145.79;66.75;77413.31;5303534;28;20040;-74
2023/10/18 09:27:07;;;;;;;7.65;5.68;;;;;;;-145.79;66.97;77392.13;5304875;28;20020;-73
2023/10/18 09:29:39;;;;;;;8.70;6.38;;;;;;;-145.79;66.03;77385.75;5301497;28;20486;-75
2023/10/18 09:32:19;;;;;;;8.80;5.97;;;;;;;-145.79;65.75;77390.00;5300936;28;20141;-74
2023/10/18 09:34:51;;;;;;;11.82;10.43;;;;;;;-145.79;65.96;77373.03;5299082;28;20107;-74
2023/10/18 09:37:35;;;;;;;8.48;7.43;;;;;;;-145.79;65.93;77360.31;5296130;28;20042;-74
2023/10/18 09:40:11;;;;;;;6.57;5.95;;;;;;;-145.79;66.00;77360.31;5299093;28;20032;-74
2023/10/18 09:42:44;;;;;;;6.53;5.65;;;;;;;-145.79;65.55;77334.88;5294462;28;20041;-77
2023/10/18 09:45:20;;;;;;;6.80;5.75;;;;;;;-145.79;65.61;77320.03;5297402;28;20021;-76
2023/10/18 09:47:52;;;;;;;11.25;5.68;;;;;;;-145.79;65.69;77298.84;5294883;28;20047;-72
2023/10/18 09:50:25;;;;;;;6.78;6.10;;;;;;;-145.79;64.87;77288.25;5299833;28;20028;-74
2023/10/18 09:52:57;;;;;;;6.10;5.47;;;;;;;-145.79;64.42;77292.50;5299372;28;20047;-74
2023/10/18 09:55:28;;;;;;;8.07;6.22;;;;;;;-145.79;64.50;77275.53;5299084;28;20032;-76
2023/10/18 09:58:04;;;;;;;7.47;6.68;;;;;;;-145.79;64.53;77267.06;5295875;28;20139;-76
2023/10/18 10:00:42;;;;;;;7.43;5.68;;;;;;;-145.79;64.29;77245.84;5295524;28;20536;-75
2023/10/18 10:03:24;;;;;;;8.63;6.00;;;;;;;-145.79;64.41;77233.16;5291585;28;20581;-79
2023/10/18 10:05:57;;;;;;;9.38;6.13;;;;;;;-145.79;64.52;77218.31;5299828;28;20027;-77
2023/10/18 10:08:31;;;;;;;7.55;6.03;;;;;;;-145.79;63.92;77211.94;5299399;28;20024;-76
2023/10/18 10:11:13;;;;;;;7.30;5.55;;;;;;;-145.79;64.50;77188.63;5303788;28;20024;-78
2023/10/18 10:13:49;;;;;;;6.40;5.80;;;;;;;-145.79;63.98;77186.50;5304444;28;20139;-77
2023/10/18 10:16:24;;;;;;;11.75;7.07;;;;;;;-145.79;64.14;77175.91;5292730;28;20039;-76
2023/10/18 10:18:59;;;;;;;6.60;5.63;;;;;;;-145.79;65.68;77158.97;5291513;28;20035;-77
2023/10/18 10:21:33;;;;;;;6.85;5.90;;;;;;;-145.79;63.58;77156.84;5294989;28;20870;-76
2023/10/18 10:27:21;;;;;;;7.28;5.45;;;;;;;-145.79;63.78;77122.94;5294249;28;20122;-77
2023/10/18 10:29:56;;;;;;;8.10;5.50;;;;;;;-145.79;63.63;77122.94;5294796;28;20036;-77
2023/10/18 10:32:28;;;;;;;9.07;5.82;;;;;;;-145.79;63.41;77122.94;5292610;28;20104;-77
2023/10/18 10:35:17;;;;;;;7.80;5.60;;;;;;;-145.79;64.54;77097.50;5295680;28;20471;-76
2023/10/18 10:37:54;;;;;;;5.85;5.07;;;;;;;-145.79;63.71;77089.00;5292333;28;20498;-76
2023/10/18 10:43:08;;;;;;;7.82;5.72;;;;;;;-145.79;63.71;77084.78;5296202;28;20092;-76
2023/10/18 10:48:28;;;;;;;9.25;5.82;;;;;;;-145.79;64.03;77059.34;5296530;28;20060;-77
2023/10/18 10:53:58;;;;;;;9.10;6.05;;;;;;;-145.79;63.92;77029.66;5293036;28;20184;-73
2023/10/18 10:56:33;;;;;;;8.15;6.15;;;;;;;-145.79;63.43;77025.44;5292680;28;20103;-75
2023/10/18 11:04:24;;;;;;;9.20;6.45;;;;;;;-145.79;63.35;76980.94;5303434;28;20119;-76
2023/10/18 11:07:04;;;;;;;14.25;12.73;;;;;;;-145.79;63.91;76961.84;5294534;28;20443;-76
2023/10/18 11:09:42;;;;;;;8.85;6.00;;;;;;;-145.79;63.19;76959.72;5302924;28;20020;-76
2023/10/18 11:12:14;;;;;;;7.03;5.45;;;;;;;-145.79;62.76;76944.91;5294894;28;20032;-75
2023/10/18 11:14:52;;;;;;;11.82;6.40;;;;;;;-145.79;61.80;76930.06;5294630;28;20073;-76
2023/10/18 11:17:23;;;;;;;11.07;5.78;;;;;;;-145.79;61.80;76923.69;5288218;28;20086;-76
2023/10/18 11:19:58;;;;;;;9.57;5.72;;;;;;;-145.79;62.00;76906.75;5296354;28;20055;-75
2023/10/18 11:22:30;;;;;;;6.80;6.05;;;;;;;-145.79;61.21;76898.25;5294091;28;20036;-75
2023/10/18 11:25:06;;;;;;;6.95;6.28;;;;;;;-145.79;61.93;76883.44;5294600;28;20112;-75
2023/10/18 11:27:38;;;;;;;5.97;5.38;;;;;;;-145.79;61.86;76877.06;5295549;28;20031;-76
2023/10/18 11:30:25;;;;;;;7.00;5.72;;;;;;;-145.79;61.25;76872.84;5304468;28;20036;-75
2023/10/18 11:32:56;;;;;;;6.90;6.20;;;;;;;-145.79;61.21;76860.13;5291789;28;20016;-77
2023/10/18 11:35:42;;;;;;;7.22;6.47;;;;;;;-145.79;60.47;76860.13;5300030;28;20378;-79
2023/10/18 11:38:19;;;;;;;7.38;5.97;;;;;;;-145.79;60.81;76851.63;5302467;28;20390;-77
2023/10/18 11:40:51;;;;;;;6.50;5.90;;;;;;;-145.79;61.36;76845.28;5302279;28;20097;-77
2023/10/18 11:43:25;;;;;;;6.78;6.13;;;;;;;-145.79;60.99;76834.69;5295056;28;20444;-77
2023/10/18 11:46:07;;;;;;;10.13;6.43;;;;;;;-145.79;60.55;76821.97;5290573;28;20025;-76
2023/10/18 11:48:40;;;;;;;7.28;6.07;;;;;;;-145.79;60.72;76792.31;5299551;28;20028;-75
2023/10/18 11:51:13;;;;;;;7.47;6.20;;;;;;;-145.79;60.23;76779.59;5290144;28;20016;-77
2023/10/18 11:53:51;;;;;;;7.00;5.85;;;;;;;-145.79;59.77;76775.34;5303138;28;20055;-74
2023/10/18 11:56:22;;;;;;;7.45;6.22;;;;;;;-145.79;59.52;76771.09;5302644;28;20379;-76
2023/10/18 11:59:02;;;;;;;8.63;6.13;;;;;;;-145.79;59.89;76764.75;5302887;28;20125;-75
2023/10/18 12:01:34;;;;;;;6.07;5.47;;;;;;;-145.79;59.19;76756.28;5289973;28;20032;-75
2023/10/18 12:04:06;;;;;;;7.05;5.70;;;;;;;-145.79;59.46;76743.56;5300960;28;20032;-77
2023/10/18 12:06:38;;;;;;;8.57;5.50;;;;;;;-145.79;59.33;76741.44;5297990;28;20107;-76
2023/10/18 12:11:43;;;;;;;5.60;4.90;;;;;;;-145.79;58.39;76724.47;5306664;28;20036;-75
2023/10/18 12:14:14;;;;;;;7.75;5.72;;;;;;;-145.79;58.28;76724.47;5298078;28;20028;-75
2023/10/18 12:16:46;;;;;;;6.32;5.22;;;;;;;-145.79;58.58;76711.75;5305631;28;20379;-76
2023/10/18 12:19:19;;;;;;;8.43;5.60;;;;;;;-145.79;58.47;76707.53;5306631;28;20431;-73
2023/10/18 12:21:54;;;;;;;6.68;5.38;;;;;;;-145.79;58.42;76690.56;5299726;28;20119;-75
2023/10/18 12:24:27;;;;;;;9.85;5.78;;;;;;;-145.79;58.19;76684.22;5295675;28;20036;-78
2023/10/18 12:29:52;;;;;;;5.85;5.05;;;;;;;-145.79;58.02;76682.09;5296435;28;20036;-77
2023/10/18 12:32:25;;;;;;;7.60;4.97;;;;;;;-145.79;58.54;76660.91;5295383;28;20032;-77
2023/10/18 12:34:57;;;;;;;5.72;4.45;;;;;;;-145.79;58.75;76652.44;5296029;28;20056;-78
2023/10/18 12:37:32;;;;;;;5.32;4.75;;;;;;;-145.79;58.83;76631.22;5297806;28;20129;-79
2023/10/18 12:40:14;;;;;;;;;;;;;;;-145.79;58.80;76603.69;5298604;28;20027;-78
2023/10/18 12:42:46;;;;;;;8.32;5.50;;;;;;;-145.79;58.37;76588.84;5300029;28;19923;-77
2023/10/18 12:45:18;;;;;;;5.18;4.65;;;;;;;-145.79;57.99;76586.72;5300521;28;20024;-73
2023/10/18 12:47:51;;;;;;;5.63;5.05;;;;;;;-145.79;57.20;76578.25;5305725;28;20106;-77
2023/10/18 12:50:27;;;;;;;8.80;5.05;;;;;;;-145.79;57.75;76565.53;5304322;28;20116;-76
2023/10/18 12:53:17;;;;;;;4.80;4.18;;;;;;;-145.79;57.83;76574.00;5293773;28;20357;-72
2023/10/18 12:55:57;;;;;;;6.93;5.18;;;;;;;-145.79;56.84;76576.13;5294977;28;20024;-74
2023/10/18 12:58:32;;;;;;;6.82;4.38;;;;;;;-145.79;57.39;76576.13;5300125;28;20055;-77
2023/10/18 13:01:06;;;;;;;7.20;4.60;;;;;;;-145.79;57.31;76574.00;5287885;28;20051;-77
2023/10/18 13:03:38;;;;;;;5.28;4.75;;;;;;;-145.79;56.81;76578.25;5297713;28;20029;-72
2023/10/18 13:06:16;;;;;;;6.20;5.15;;;;;;;-145.79;57.44;76576.13;5294974;28;20504;-73
2023/10/18 13:08:56;;;;;;;8.60;4.13;;;;;;;-145.79;56.93;76567.66;5302648;28;20024;-73
2023/10/18 13:14:14;;;;;;;6.28;4.35;;;;;;;-145.79;57.73;76563.41;5294883;28;20399;-77
2023/10/18 13:16:45;;;;;;;5.05;4.45;;;;;;;-145.79;58.36;76554.94;5301220;28;20036;-74
2023/10/18 13:19:19;;;;;;;7.00;4.72;;;;;;;-145.79;57.50;76535.88;5302921;28;20035;-73
2023/10/18 13:21:50;;;;;;;6.90;4.88;;;;;;;-145.79;59.12;76527.38;5297725;28;20074;-73
2023/10/18 13:26:59;;;;;;;8.48;4.90;;;;;;;-145.79;57.33;76533.75;5301098;28;20051;-75
2023/10/18 13:29:31;;;;;;;4.97;4.47;;;;;;;-145.79;57.00;76516.78;5293321;28;20024;-74
2023/10/18 13:32:10;;;;;;;6.63;5.32;;;;;;;-145.79;57.17;76512.56;5292630;28;20093;-74
2023/10/18 13:34:44;;;;;;;6.10;4.85;;;;;;;-145.79;56.81;76516.78;5292734;28;20020;-73
2023/10/18 13:37:17;;;;;;;8.00;5.20;;;;;;;-145.79;57.71;76504.09;5303935;28;20023;-73
2023/10/18 13:39:50;;;;;;;5.30;4.68;;;;;;;-145.79;59.13;76482.88;5296476;28;20020;-73
2023/10/18 13:42:21;;;;;;;6.25;4.60;;;;;;;-145.79;56.99;76482.88;5295934;28;20030;-72
2023/10/18 13:44:53;;;;;;;7.30;4.55;;;;;;;-145.79;56.88;76476.53;5292476;28;20031;-73
2023/10/18 13:47:26;;;;;;;5.78;4.72;;;;;;;-145.79;56.68;76487.13;5300125;28;20020;-73
2023/10/18 13:49:58;;;;;;;8.93;4.75;;;;;;;-145.79;56.98;76482.88;5296350;28;20020;-73
2023/10/18 13:52:29;;;;;;;8.48;5.15;;;;;;;-145.79;56.16;76478.66;5302169;28;20474;-72
2023/10/18 13:55:00;;;;;;;7.93;4.38;;;;;;;-145.79;56.53;76470.19;5296221;28;20047;-73
2023/10/18 13:57:32;;;;;;;7.15;4.03;;;;;;;-145.79;56.49;76472.28;5295803;28;20474;-72
2023/10/18 14:00:06;;;;;;;4.45;4.05;;;;;;;-145.79;56.57;76468.06;5296475;28;20020;-73
2023/10/18 14:02:38;;;;;;;5.45;4.38;;;;;;;-145.79;57.06;76455.34;5298996;28;20028;-73
2023/10/18 14:05:09;;;;;;;4.85;4.35;;;;;;;-145.79;57.51;76455.34;5292776;28;20088;-73
2023/10/18 14:07:41;;;;;;;7.15;4.75;;;;;;;-145.79;57.50;76453.22;5294634;28;20451;-73
2023/10/18 14:10:19;;;;;;;7.80;3.75;;;;;;;-145.79;57.27;76444.75;5294995;28;20111;-73
2023/10/18 14:12:51;;;;;;;8.02;4.32;;;;;;;-145.79;56.67;76444.75;5303262;28;20032;-72
2023/10/18 14:15:25;;;;;;;4.20;3.67;;;;;;;-145.79;57.17;76442.63;5296185;28;20688;-73
2023/10/18 14:17:56;;;;;;;8.50;4.47;;;;;;;-145.79;56.38;76436.28;5295579;28;20024;-73
2023/10/18 14:20:30;;;;;;;6.35;3.53;;;;;;;-145.79;56.22;76432.03;5293263;28;20087;-73
2023/10/18 14:23:01;;;;;;;4.65;3.60;;;;;;;-145.79;56.50;76438.38;5303255;28;20127;-73
2023/10/18 14:25:33;;;;;;;4.90;3.88;;;;;;;-145.79;56.11;76427.78;5292598;28;20119;-73
2023/10/18 14:28:05;;;;;;;6.88;3.85;;;;;;;-145.79;56.56;76432.03;5302258;28;20057;-73
2023/10/18 14:30:36;;;;;;;5.40;3.60;;;;;;;-145.79;56.38;76419.31;5291172;28;20036;-74
2023/10/18 14:33:08;;;;;;;7.57;3.85;;;;;;;-145.79;56.14;76419.31;5291620;28;20021;-72
2023/10/18 14:35:39;;;;;;;4.85;3.67;;;;;;;-145.79;55.62;76406.59;5300823;28;20571;-73
2023/10/18 14:38:12;;;;;;;4.15;3.20;;;;;;;-145.79;55.94;76408.72;5291273;28;20024;-71
2023/10/18 14:40:47;;;;;;;4.72;3.60;;;;;;;-145.79;56.18;76402.38;5296746;28;20391;-72
2023/10/18 14:43:22;;;;;;;6.28;3.65;;;;;;;-145.79;55.78;76398.13;5296814;28;20033;-71
2023/10/18 14:45:55;;;;;;;;;;;;;;;-145.79;55.70;76389.66;5296101;28;20097;-74
2023/10/18 14:48:27;;;;;;;8.10;6.05;;;;;;;-145.79;55.16;76391.78;5304120;28;20258;-74
2023/10/18 14:51:02;;;;;;;7.18;5.75;;;;;;;-145.79;55.52;76385.41;5295463;28;20077;-72
2023/10/18 14:53:34;;;;;;;5.30;3.33;;;;;;;-145.79;55.04;76385.41;5294977;28;20044;-73
2023/10/18 14:56:16;;;;;;;4.45;3.10;;;;;;;-145.79;54.82;76381.16;5290894;28;20027;-74
2023/10/18 14:58:48;;;;;;;7.63;3.25;;;;;;;-145.79;54.10;76385.41;5299387;28;20055;-73
2023/10/18 15:01:20;;;;;;;5.00;2.83;;;;;;;-145.79;54.35;76372.69;5293228;28;20016;-74
2023/10/18 15:03:51;;;;;;;5.75;3.80;;;;;;;-145.79;54.37;76368.47;5298382;28;20038;-69
2023/10/18 15:06:24;;;;;;;4.07;2.80;;;;;;;-145.79;54.39;76366.34;5298638;28;20035;-71
2023/10/18 15:08:57;;;;;;;3.92;2.40;;;;;;;-145.79;54.47;76357.84;5300665;28;20027;-72
2023/10/18 15:11:30;;;;;;;4.10;2.88;;;;;;;-145.79;53.78;76357.84;5303813;28;20073;-74
2023/10/18 15:14:01;;;;;;;6.53;2.75;;;;;;;-145.79;53.54;76355.75;5300715;28;20036;-72
2023/10/18 15:16:32;;;;;;;3.63;2.90;;;;;;;-145.79;53.57;76355.75;5300632;28;20486;-73
2023/10/18 15:19:04;;;;;;;5.20;3.03;;;;;;;-145.79;52.84;76362.09;5299248;28;20025;-72
2023/10/18 15:21:35;;;;;;;4.63;2.70;;;;;;;-145.79;53.48;76347.25;5291015;28;20017;-70
2023/10/18 15:24:07;;;;;;;3.67;2.78;;;;;;;-145.79;53.35;76349.38;5290181;28;20037;-69
2023/10/18 15:26:39;;;;;;;3.65;2.20;;;;;;;-145.79;54.33;76347.25;5293386;28;20103;-73
2023/10/18 15:29:12;;;;;;;4.85;2.55;;;;;;;-145.79;54.08;76347.25;5299089;28;20459;-72
2023/10/18 15:31:44;;;;;;;4.20;2.50;;;;;;;-145.79;53.96;76345.16;5296620;28;20032;-73
2023/10/18 15:34:15;;;;;;;4.55;3.40;;;;;;;-145.79;53.69;76340.91;5297933;28;20043;-72
2023/10/18 15:36:47;;;;;;;2.47;2.15;;;;;;;-145.79;53.71;76330.31;5298568;28;20025;-70
2023/10/18 15:39:18;;;;;;;3.40;2.80;;;;;;;-145.79;53.69;76334.56;5294193;28;20024;-73
2023/10/18 15:41:51;;;;;;;4.18;2.55;;;;;;;-145.79;53.51;76334.56;5301809;28;20043;-73
2023/10/18 15:44:22;;;;;;;7.38;2.70;;;;;;;-145.79;53.66;76330.31;5304202;28;20028;-71
2023/10/18 15:46:59;;;;;;;3.30;2.55;;;;;;;-145.79;53.67;76326.06;5297992;28;20035;-71
2023/10/18 15:49:30;;;;;;;4.70;2.08;;;;;;;-145.79;53.57;76338.78;5302321;28;20032;-71
2023/10/18 15:52:03;;;;;;;6.00;2.28;;;;;;;-145.79;53.91;76321.84;5302822;28;20024;-72
2023/10/18 15:54:34;;;;;;;4.25;2.45;;;;;;;-145.79;54.14;76326.06;5304930;28;20359;-76
2023/10/18 15:57:07;;;;;;;6.18;2.50;;;;;;;-145.79;53.64;76330.31;5303583;28;20043;-72
2023/10/18 15:59:39;;;;;;;3.65;2.90;;;;;;;-145.79;53.69;76328.19;5298235;28;20017;-68
2023/10/18 16:02:13;;;;;;;4.88;2.25;;;;;;;-145.79;54.68;76326.06;5301685;28;20028;-68
2023/10/18 16:04:45;;;;;;;3.95;2.33;;;;;;;-145.79;54.92;76319.72;5296689;28;20472;-72
2023/10/18 16:07:22;;;;;;;5.47;2.85;;;;;;;-145.79;54.23;76334.56;5299752;28;20016;-70
2023/10/18 16:09:57;;;;;;;6.00;3.70;;;;;;;-145.79;54.65;76326.06;5305681;28;20039;-70
2023/10/18 16:12:29;;;;;;;4.97;2.73;;;;;;;-145.79;54.38;76332.44;5299937;28;20039;-71
2023/10/18 16:15:00;;;;;;;3.75;2.50;;;;;;;-145.79;54.51;76326.06;5301761;28;20051;-70
2023/10/18 16:17:32;;;;;;;4.82;2.92;;;;;;;-145.79;54.65;76330.31;5302164;28;20024;-70
2023/10/18 16:20:04;;;;;;;6.53;3.22;;;;;;;-145.79;54.82;76334.56;5303157;28;20024;-70
2023/10/18 16:22:35;;;;;;;6.00;2.97;;;;;;;-145.79;55.01;76332.44;5297721;28;20043;-70
2023/10/18 16:25:07;;;;;;;5.25;2.83;;;;;;;-145.79;55.26;76330.31;5300817;28;20378;-70
2023/10/18 16:27:38;;;;;;;7.70;2.47;;;;;;;-145.79;55.06;76330.31;5306188;28;20532;-70
2023/10/18 16:30:13;;;;;;;5.15;2.78;;;;;;;-145.79;55.45;76332.44;5297347;28;20024;-70
2023/10/18 16:32:44;;;;;;;3.42;2.55;;;;;;;-145.79;55.66;76328.19;5303214;28;20386;-70
2023/10/18 16:35:16;;;;;;;3.63;2.30;;;;;;;-145.79;55.42;76332.44;5292955;28;20032;-72
2023/10/18 16:37:48;;;;;;;2.90;2.20;;;;;;;-145.79;56.29;76328.19;5298580;28;20028;-71
2023/10/18 16:40:19;;;;;;;5.78;2.92;;;;;;;-145.79;56.02;76317.59;5293439;28;20037;-71
2023/10/18 16:42:50;;;;;;;3.58;2.33;;;;;;;-145.79;55.95;76326.06;5297519;28;20038;-70
2023/10/18 16:45:23;;;;;;;4.20;2.67;;;;;;;-145.79;56.46;76328.19;5298903;28;20407;-68
2023/10/18 16:47:57;;;;;;;6.15;2.70;;;;;;;-145.79;56.27;76326.06;5305479;28;20077;-67
2023/10/18 16:50:28;;;;;;;4.18;2.78;;;;;;;-145.79;56.48;76317.59;5299048;28;20059;-68
2023/10/18 16:52:59;;;;;;;3.97;2.28;;;;;;;-145.79;56.72;76319.72;5292788;28;20044;-68
